Time;durP1;ratioP1;P1;durP2;ratioP2;P2;SDS_P1;SDS_P2;PMS_P1;PMS_P2;Temp;Humidity;BMP_temperature;BMP_pressure;BME280_temperature;BME280_humidity;BME280_pressure;Samples;Min_cycle;Max_cycle;Signal;HPM_P1;HPM_P2
2022/05/30 00:00:21;;;;;;;;;;;;;;;;;;4967288;28;136079;-64
2022/05/30 00:02:47;;;;;;;;;;;;;;;;;;4957646;28;123358;-64
2022/05/30 00:05:13;;;;;;;;;;;;;;;;;;4962777;28;135926;-62
2022/05/30 00:07:40;;;;;;;;;;;;;;;;;;4966203;28;137054;-62
2022/05/30 00:10:06;;;;;;;;;;;;;;;;;;4957767;28;123104;-62
2022/05/30 00:12:32;;;;;;;;;;;;;;;;;;4966882;28;136660;-64
2022/05/30 00:14:58;;;;;;;;;;;;;;;;;;4965658;28;138735;-64
2022/05/30 00:17:25;;;;;;;;;;;;;;;;;;4967429;28;124158;-64
2022/05/30 00:19:52;;;;;;;;;;;;;;;;;;4959752;28;136856;-64
2022/05/30 00:22:18;;;;;;;;;;;;;;;;;;4960267;28;123188;-63
2022/05/30 00:24:44;;;;;;;;;;;;;;;;;;4961850;28;124661;-64
2022/05/30 00:27:10;;;;;;;;;;;;;;;;;;4963515;28;138167;-64
2022/05/30 00:29:37;;;;;;;;;;;;;;;;;;4958485;28;108439;-64
2022/05/30 00:32:03;;;;;;;;;;;;;;;;;;4959712;28;138114;-64
2022/05/30 00:34:29;;;;;;;;;;;;;;;;;;4964493;28;136917;-64
2022/05/30 00:36:56;;;;;;;;;;;;;;;;;;4966232;28;125436;-64
2022/05/30 00:39:22;;;;;;;;;;;;;;;;;;4959717;28;135516;-64
2022/05/30 00:41:48;;;;;;;;;;;;;;;;;;4965886;28;122955;-64
2022/05/30 00:44:15;;;;;;;;;;;;;;;;;;4956770;28;134595;-64
2022/05/30 00:46:41;;;;;;;;;;;;;;;;;;4954708;28;136387;-64
2022/05/30 00:49:07;;;;;;;;;;;;;;;;;;4966892;28;106352;-64
2022/05/30 00:51:33;;;;;;;;;;;;;;;;;;4963205;28;135209;-65
2022/05/30 00:54:00;;;;;;;;;;;;;;;;;;4953833;28;136931;-63
2022/05/30 00:56:26;;;;;;;;;;;;;;;;;;4961512;28;106227;-63
2022/05/30 00:58:53;;;;;;;;;;;;;;;;;;4967152;28;114683;-64
2022/05/30 01:01:19;;;;;;;;;;;;;;;;;;4964349;28;117520;-64
2022/05/30 01:06:30;;;;;;;;;;;;;;;;;;4963773;28;136263;-64
2022/05/30 01:08:57;;;;;;;;;;;;;;;;;;4994695;22;123057;-72
2022/05/30 01:11:23;;;;;;;;;;;;;;;;;;4984957;28;134647;-73
2022/05/30 01:13:49;;;;;;;;;;;;;;;;;;4988111;28;136978;-70
2022/05/30 01:16:16;;;;;;;;;;;;;;;;;;4987079;28;106127;-71
2022/05/30 01:18:43;;;;;;;;;;;;;;;;;;4986356;28;106619;-70
2022/05/30 01:21:09;;;;;;;;;;;;;;;;;;4984054;28;109430;-70
2022/05/30 01:23:35;;;;;;;;;;;;;;;;;;4987224;28;113545;-70
2022/05/30 01:26:04;;;;;;;;;;;;;;;;;;4986739;28;107281;-70
2022/05/30 01:28:40;;;;;;;;;;;;;;;;;;4987304;28;106559;-70
2022/05/30 01:31:06;;;;;;;;;;;;;;;;;;5000192;28;107758;-70
2022/05/30 01:33:33;;;;;;;;;;;;;;;;;;4990138;28;108487;-70
2022/05/30 01:36:00;;;;;;;;;;;;;;;;;;4985416;28;114153;-70
2022/05/30 01:38:27;;;;;;;;;;;;;;;;;;5002285;27;117787;-71
2022/05/30 01:40:55;;;;;;;;;;;;;;;;;;4988557;28;108756;-71
2022/05/30 01:43:22;;;;;;;;;;;;;;;;;;4985279;28;111107;-70
2022/05/30 01:45:55;;;;;;;;;;;;;;;;;;4974070;28;108485;-71
2022/05/30 01:48:22;;;;;;;;;;;;;;;;;;5003208;27;106598;-70
2022/05/30 01:50:49;;;;;;;;;;;;;;;;;;4988018;28;108343;-70
2022/05/30 01:53:23;;;;;;;;;;;;;;;;;;4989377;28;109065;-70
2022/05/30 01:56:24;;;;;;;;;;;;;;;;;;4989918;28;106487;-70
2022/05/30 01:58:54;;;;;;;;;;;;;;;;;;4986105;28;108515;-71
2022/05/30 02:01:52;;;;;;;;;;;;;;;;;;4976116;28;106726;-71
2022/05/30 02:04:19;;;;;;;;;;;;;;;;;;4988190;28;115298;-71
2022/05/30 02:06:45;;;;;;;;;;;;;;;;;;4988877;28;136238;-71
2022/05/30 02:09:12;;;;;;;;;;;;;;;;;;4983248;28;106767;-70
2022/05/30 02:11:39;;;;;;;;;;;;;;;;;;4988463;28;108354;-71
2022/05/30 02:14:24;;;;;;;;;;;;;;;;;;4988540;28;109186;-71
2022/05/30 02:17:00;;;;;;;;;;;;;;;;;;4978643;28;105859;-70
2022/05/30 02:19:26;;;;;;;;;;;;;;;;;;4987627;28;107979;-71
2022/05/30 02:21:53;;;;;;;;;;;;;;;;;;4988833;28;129948;-71
2022/05/30 02:24:19;;;;;;;;;;;;;;;;;;4988351;28;106246;-70
2022/05/30 02:26:45;;;;;;;;;;;;;;;;;;4985067;28;108374;-70
2022/05/30 02:29:16;;;;;;;;;;;;;;;;;;4988063;28;107428;-71
2022/05/30 02:31:51;;;;;;;;;;;;;;;;;;4983260;28;107911;-71
2022/05/30 02:37:03;;;;;;;;;;;;;;;;;;4986603;28;112342;-70
2022/05/30 02:39:29;;;;;;;;;;;;;;;;;;4973660;28;106739;-71
2022/05/30 02:42:14;;;;;;;;;;;;;;;;;;4989023;28;109039;-71
2022/05/30 02:44:41;;;;;;;;;;;;;;;;;;4983511;28;121911;-71
2022/05/30 02:47:08;;;;;;;;;;;;;;;;;;4986515;28;107614;-71
2022/05/30 02:49:36;;;;;;;;;;;;;;;;;;4980775;28;106540;-72
2022/05/30 02:52:02;;;;;;;;;;;;;;;;;;4990711;28;120848;-71
2022/05/30 02:54:29;;;;;;;;;;;;;;;;;;4985811;28;108683;-71
2022/05/30 02:57:14;;;;;;;;;;;;;;;;;;4983003;28;106202;-71
2022/05/30 02:59:41;;;;;;;;;;;;;;;;;;4988998;28;107920;-72
2022/05/30 03:02:08;;;;;;;;;;;;;;;;;;4984468;28;109169;-71
2022/05/30 03:04:35;;;;;;;;;;;;;;;;;;4985916;28;106175;-72
2022/05/30 03:07:04;;;;;;;;;;;;;;;;;;4989170;28;108256;-70
2022/05/30 03:09:30;;;;;;;;;;;;;;;;;;4985350;28;107558;-72
2022/05/30 03:12:11;;;;;;;;;;;;;;;;;;4988529;28;107187;-71
2022/05/30 03:14:39;;;;;;;;;;;;;;;;;;4992518;28;114850;-72
2022/05/30 03:17:07;;;;;;;;;;;;;;;;;;5002247;27;105805;-71
2022/05/30 03:19:36;;;;;;;;;;;;;;;;;;4984948;28;108447;-72
2022/05/30 03:22:02;;;;;;;;;;;;;;;;;;4983246;28;110729;-71
2022/05/30 03:24:33;;;;;;;;;;;;;;;;;;4985645;28;106260;-70
2022/05/30 03:26:59;;;;;;;;;;;;;;;;;;4979129;28;108525;-70
2022/05/30 03:29:25;;;;;;;;;;;;;;;;;;4978774;28;137037;-71
2022/05/30 03:31:52;;;;;;;;;;;;;;;;;;4995101;27;119286;-71
2022/05/30 03:34:20;;;;;;;;;;;;;;;;;;4986953;28;135418;-70
2022/05/30 03:36:46;;;;;;;;;;;;;;;;;;4993778;28;107185;-71
2022/05/30 03:39:30;;;;;;;;;;;;;;;;;;4987649;28;108536;-71
2022/05/30 03:42:19;;;;;;;;;;;;;;;;;;4986386;28;108883;-71
2022/05/30 03:44:56;;;;;;;;;;;;;;;;;;4988367;28;107988;-71
2022/05/30 03:47:22;;;;;;;;;;;;;;;;;;4983435;28;135401;-69
2022/05/30 03:49:49;;;;;;;;;;;;;;;;;;4980317;28;137015;-70
2022/05/30 03:52:16;;;;;;;;;;;;;;;;;;4985083;28;107288;-71
2022/05/30 03:54:42;;;;;;;;;;;;;;;;;;4987881;28;106634;-70
2022/05/30 03:57:09;;;;;;;;;;;;;;;;;;4980345;28;136904;-70
2022/05/30 03:59:35;;;;;;;;;;;;;;;;;;4985622;28;106216;-71
2022/05/30 04:02:01;;;;;;;;;;;;;;;;;;4986931;28;139376;-70
2022/05/30 04:04:28;;;;;;;;;;;;;;;;;;4986970;28;105806;-72
2022/05/30 04:06:54;;;;;;;;;;;;;;;;;;4986477;28;108411;-71
2022/05/30 04:09:21;;;;;;;;;;;;;;;;;;4969988;28;108435;-71
2022/05/30 04:12:17;;;;;;;;;;;;;;;;;;4975368;28;106437;-72
2022/05/30 04:15:02;;;;;;;;;;;;;;;;;;4977478;28;107295;-72
2022/05/30 04:17:31;;;;;;;;;;;;;;;;;;4986080;28;108572;-72
2022/05/30 04:19:58;;;;;;;;;;;;;;;;;;4987194;28;106025;-72
2022/05/30 04:22:24;;;;;;;;;;;;;;;;;;4985340;28;136394;-73
2022/05/30 04:25:07;;;;;;;;;;;;;;;;;;4985401;28;108872;-72
2022/05/30 04:27:34;;;;;;;;;;;;;;;;;;5000852;27;107564;-70
2022/05/30 04:30:00;;;;;;;;;;;;;;;;;;4986829;28;127670;-70
2022/05/30 04:32:31;;;;;;;;;;;;;;;;;;4986933;28;106199;-70
2022/05/30 04:34:57;;;;;;;;;;;;;;;;;;4986995;28;139005;-70
2022/05/30 04:37:23;;;;;;;;;;;;;;;;;;4983533;28;109828;-71
2022/05/30 04:39:55;;;;;;;;;;;;;;;;;;4977373;28;106105;-71
2022/05/30 04:42:47;;;;;;;;;;;;;;;;;;4977593;28;106257;-71
2022/05/30 04:45:32;;;;;;;;;;;;;;;;;;4987271;28;108408;-71
2022/05/30 04:48:31;;;;;;;;;;;;;;;;;;4978808;28;106951;-71
2022/05/30 04:50:57;;;;;;;;;;;;;;;;;;4983824;28;128349;-71
2022/05/30 04:53:23;;;;;;;;;;;;;;;;;;4986743;28;106165;-70
2022/05/30 04:56:17;;;;;;;;;;;;;;;;;;5002435;27;107008;-71
2022/05/30 04:58:59;;;;;;;;;;;;;;;;;;4986177;28;107231;-71
2022/05/30 05:01:27;;;;;;;;;;;;;;;;;;4996234;27;106429;-71
2022/05/30 05:03:53;;;;;;;;;;;;;;;;;;4990461;28;126026;-71
2022/05/30 05:06:21;;;;;;;;;;;;;;;;;;4991159;28;109414;-70
2022/05/30 05:08:49;;;;;;;;;;;;;;;;;;4987495;28;108004;-71
2022/05/30 05:11:33;;;;;;;;;;;;;;;;;;4984440;28;106436;-70
2022/05/30 05:14:18;;;;;;;;;;;;;;;;;;4985833;28;106481;-70
2022/05/30 05:17:03;;;;;;;;;;;;;;;;;;4991615;28;106140;-71
2022/05/30 05:19:30;;;;;;;;;;;;;;;;;;4988558;28;132673;-71
2022/05/30 05:21:57;;;;;;;;;;;;;;;;;;4989044;28;111496;-70
2022/05/30 05:24:23;;;;;;;;;;;;;;;;;;4988586;28;108306;-70
2022/05/30 05:27:08;;;;;;;;;;;;;;;;;;4985526;28;106755;-70
2022/05/30 05:29:35;;;;;;;;;;;;;;;;;;4993372;28;106065;-70
2022/05/30 05:32:04;;;;;;;;;;;;;;;;;;4991005;28;108931;-73
2022/05/30 05:34:30;;;;;;;;;;;;;;;;;;4987339;28;107168;-70
2022/05/30 05:36:56;;;;;;;;;;;;;;;;;;4989103;28;138607;-71
2022/05/30 05:39:24;;;;;;;;;;;;;;;;;;4987459;28;108855;-71
2022/05/30 05:41:53;;;;;;;;;;;;;;;;;;4984876;28;106702;-70
2022/05/30 05:44:20;;;;;;;;;;;;;;;;;;4988877;28;108094;-70
2022/05/30 05:46:47;;;;;;;;;;;;;;;;;;4989286;28;108972;-70
2022/05/30 05:49:14;;;;;;;;;;;;;;;;;;4988917;28;106968;-70
2022/05/30 05:51:40;;;;;;;;;;;;;;;;;;4993700;28;108295;-72
2022/05/30 05:54:10;;;;;;;;;;;;;;;;;;4988951;28;106324;-70
2022/05/30 05:56:37;;;;;;;;;;;;;;;;;;4989993;28;109157;-70
2022/05/30 05:59:23;;;;;;;;;;;;;;;;;;4983750;28;107961;-70
2022/05/30 06:01:50;;;;;;;;;;;;;;;;;;4988776;28;106544;-70
2022/05/30 06:04:18;;;;;;;;;;;;;;;;;;4987668;28;108477;-70
2022/05/30 06:07:04;;;;;;;;;;;;;;;;;;4989932;28;107174;-70
2022/05/30 06:09:51;;;;;;;;;;;;;;;;;;4982428;28;107145;-70
2022/05/30 06:12:32;;;;;;;;;;;;;;;;;;4989088;28;107686;-75
2022/05/30 06:15:01;;;;;;;;;;;;;;;;;;4993689;28;106471;-69
2022/05/30 06:17:28;;;;;;;;;;;;;;;;;;4988923;28;108841;-70
2022/05/30 06:19:55;;;;;;;;;;;;;;;;;;4986855;28;135549;-70
2022/05/30 06:22:22;;;;;;;;;;;;;;;;;;5003699;27;106197;-70
2022/05/30 06:24:48;;;;;;;;;;;;;;;;;;4988214;28;108034;-71
2022/05/30 06:27:44;;;;;;;;;;;;;;;;;;4986719;28;107167;-70
2022/05/30 06:30:29;;;;;;;;;;;;;;;;;;4984189;28;106139;-70
2022/05/30 06:32:56;;;;;;;;;;;;;;;;;;4985507;28;107689;-70
2022/05/30 06:35:33;;;;;;;;;;;;;;;;;;4989202;28;109436;-69
2022/05/30 06:38:00;;;;;;;;;;;;;;;;;;4980314;28;129123;-70
2022/05/30 06:40:26;;;;;;;;;;;;;;;;;;4987046;28;117202;-70
2022/05/30 06:42:57;;;;;;;;;;;;;;;;;;4988620;28;106648;-70
2022/05/30 06:45:29;;;;;;;;;;;;;;;;;;4989314;28;107734;-70
2022/05/30 06:48:14;;;;;;;;;;;;;;;;;;4983196;28;107528;-70
2022/05/30 06:50:52;;;;;;;;;;;;;;;;;;4983936;28;106385;-70
2022/05/30 06:53:19;;;;;;;;;;;;;;;;;;4988219;28;138152;-70
2022/05/30 06:55:51;;;;;;;;;;;;;;;;;;4987729;28;125287;-70
2022/05/30 06:58:19;;;;;;;;;;;;;;;;;;4991635;28;108362;-70
2022/05/30 07:00:46;;;;;;;;;;;;;;;;;;4986786;28;109315;-70
2022/05/30 07:03:30;;;;;;;;;;;;;;;;;;4986872;28;106325;-70
2022/05/30 07:06:32;;;;;;;;;;;;;;;;;;4945902;28;106834;-70
2022/05/30 07:09:07;;;;;;;;;;;;;;;;;;4971745;28;106047;-70
2022/05/30 07:12:00;;;;;;;;;;;;;;;;;;4988064;28;106244;-70
2022/05/30 07:14:26;;;;;;;;;;;;;;;;;;4988465;28;108798;-70
2022/05/30 07:16:52;;;;;;;;;;;;;;;;;;4984879;28;108979;-70
2022/05/30 07:19:19;;;;;;;;;;;;;;;;;;4986968;28;124142;-70
2022/05/30 07:21:50;;;;;;;;;;;;;;;;;;4991649;28;108221;-70
2022/05/30 07:24:48;;;;;;;;;;;;;;;;;;4987163;28;106732;-71
2022/05/30 07:27:33;;;;;;;;;;;;;;;;;;4983664;28;106900;-69
2022/05/30 07:30:18;;;;;;;;;;;;;;;;;;4984971;28;106931;-68
2022/05/30 07:33:03;;;;;;;;;;;;;;;;;;4986972;28;106273;-69
2022/05/30 07:35:48;;;;;;;;;;;;;;;;;;4983394;28;106536;-69
2022/05/30 07:38:39;;;;;;;;;;;;;;;;;;4982038;28;109277;-69
2022/05/30 07:41:24;;;;;;;;;;;;;;;;;;4987209;28;109901;-70
2022/05/30 07:44:00;;;;;;;;;;;;;;;;;;5001534;27;109062;-67
2022/05/30 07:46:39;;;;;;;;;;;;;;;;;;4989692;28;110135;-68
2022/05/30 07:49:08;;;;;;;;;;;;;;;;;;4997282;27;108246;-68
2022/05/30 07:51:53;;;;;;;;;;;;;;;;;;4986748;28;107108;-68
2022/05/30 07:54:33;;;;;;;;;;;;;;;;;;4984201;28;106279;-68
2022/05/30 07:57:05;;;;;;;;;;;;;;;;;;4984908;28;107890;-78
2022/05/30 07:59:32;;;;;;;;;;;;;;;;;;4983271;28;108236;-67
2022/05/30 08:01:58;;;;;;;;;;;;;;;;;;4981215;28;120080;-69
2022/05/30 08:04:26;;;;;;;;;;;;;;;;;;5002506;28;108068;-69
2022/05/30 08:06:58;;;;;;;;;;;;;;;;;;4987051;28;106794;-67
2022/05/30 08:09:43;;;;;;;;;;;;;;;;;;4983750;28;106846;-67
2022/05/30 08:12:12;;;;;;;;;;;;;;;;;;4985904;28;109854;-69
2022/05/30 08:15:04;;;;;;;;;;;;;;;;;;4986458;27;106247;-69
2022/05/30 08:17:53;;;;;;;;;;;;;;;;;;4984623;28;106603;-70
2022/05/30 08:20:19;;;;;;;;;;;;;;;;;;4985776;28;116738;-69
2022/05/30 08:22:45;;;;;;;;;;;;;;;;;;4984064;28;117791;-70
2022/05/30 08:25:14;;;;;;;;;;;;;;;;;;5000254;27;108904;-70
2022/05/30 08:27:41;;;;;;;;;;;;;;;;;;4985525;28;108311;-70
2022/05/30 08:30:07;;;;;;;;;;;;;;;;;;4970885;28;108485;-69
2022/05/30 08:32:37;;;;;;;;;;;;;;;;;;4982528;28;108592;-69
2022/05/30 08:35:22;;;;;;;;;;;;;;;;;;4981685;28;107710;-69
2022/05/30 08:37:49;;;;;;;;;;;;;;;;;;4982591;28;108245;-70
2022/05/30 08:43:01;;;;;;;;;;;;;;;;;;5003609;28;107257;-69
2022/05/30 08:45:50;;;;;;;;;;;;;;;;;;4992366;28;107013;-68
2022/05/30 08:48:25;;;;;;;;;;;;;;;;;;4990226;28;107388;-68
2022/05/30 08:50:51;;;;;;;;;;;;;;;;;;4980113;28;107646;-68
2022/05/30 08:53:18;;;;;;;;;;;;;;;;;;4998221;27;108817;-67
2022/05/30 08:55:46;;;;;;;;;;;;;;;;;;4996134;27;106455;-67
2022/05/30 08:58:24;;;;;;;;;;;;;;;;;;4979261;28;107603;-70
2022/05/30 09:00:50;;;;;;;;;;;;;;;;;;4975322;28;140534;-69
2022/05/30 09:03:36;;;;;;;;;;;;;;;;;;4977703;28;106162;-68
2022/05/30 09:06:04;;;;;;;;;;;;;;;;;;4983110;28;108064;-68
2022/05/30 09:08:30;;;;;;;;;;;;;;;;;;4992891;28;123700;-68
2022/05/30 09:11:20;;;;;;;;;;;;;;;;;;4977179;28;106720;-68
2022/05/30 09:13:46;;;;;;;;;;;;;;;;;;4976228;28;108255;-69
2022/05/30 09:16:19;;;;;;;;;;;;;;;;;;4981139;28;108265;-70
2022/05/30 09:18:46;;;;;;;;;;;;;;;;;;4968978;28;133707;-71
2022/05/30 09:21:13;;;;;;;;;;;;;;;;;;4977889;28;109362;-70
2022/05/30 09:23:39;;;;;;;;;;;;;;;;;;4975866;28;107535;-71
2022/05/30 09:26:07;;;;;;;;;;;;;;;;;;4980417;28;108898;-70
2022/05/30 09:28:50;;;;;;;;;;;;;;;;;;4978683;28;108659;-70
2022/05/30 09:31:31;;;;;;;;;;;;;;;;;;4965719;28;106536;-69
2022/05/30 09:34:17;;;;;;;;;;;;;;;;;;4977893;28;106814;-69
2022/05/30 09:37:03;;;;;;;;;;;;;;;;;;4986414;28;107256;-70
2022/05/30 09:39:34;;;;;;;;;;;;;;;;;;4989329;28;106561;-69
2022/05/30 09:42:01;;;;;;;;;;;;;;;;;;4983296;28;107236;-69
2022/05/30 09:44:28;;;;;;;;;;;;;;;;;;4984830;28;121655;-70
2022/05/30 09:47:04;;;;;;;;;;;;;;;;;;4980492;28;108301;-72
2022/05/30 09:49:30;;;;;;;;;;;;;;;;;;4982682;28;109859;-69
2022/05/30 09:52:04;;;;;;;;;;;;;;;;;;5002353;28;106937;-68
2022/05/30 09:54:30;;;;;;;;;;;;;;;;;;4981803;28;135464;-69
2022/05/30 09:56:56;;;;;;;;;;;;;;;;;;4987456;28;122380;-70
2022/05/30 09:59:28;;;;;;;;;;;;;;;;;;4990229;28;108325;-68
2022/05/30 10:02:03;;;;;;;;;;;;;;;;;;4983908;28;108590;-70
2022/05/30 10:04:33;;;;;;;;;;;;;;;;;;4979346;28;106295;-69
2022/05/30 10:07:01;;;;;;;;;;;;;;;;;;5004692;28;106795;-69
2022/05/30 10:09:36;;;;;;;;;;;;;;;;;;4981959;27;110416;-70
2022/05/30 10:12:07;;;;;;;;;;;;;;;;;;4982776;28;106122;-68
2022/05/30 10:14:34;;;;;;;;;;;;;;;;;;4981365;28;106353;-69
2022/05/30 10:17:12;;;;;;;;;;;;;;;;;;4985647;28;109773;-69
2022/05/30 10:19:38;;;;;;;;;;;;;;;;;;4981619;28;112896;-68
2022/05/30 10:28:16;;;;;;;;;;;;;;;;;;4989168;28;107121;-68
2022/05/30 10:31:01;;;;;;;;;;;;;;;;;;4974971;28;107054;-69
2022/05/30 10:33:38;;;;;;;;;;;;;;;;;;4980721;28;107717;-69
2022/05/30 10:36:05;;;;;;;;;;;;;;;;;;4973045;28;109415;-69
2022/05/30 10:38:31;;;;;;;;;;;;;;;;;;4983359;28;139296;-70
2022/05/30 10:40:58;;;;;;;;;;;;;;;;;;4998991;28;117896;-68
2022/05/30 10:43:24;;;;;;;;;;;;;;;;;;4989354;28;137067;-72
2022/05/30 10:45:50;;;;;;;;;;;;;;;;;;4986925;28;135483;-67
2022/05/30 10:48:18;;;;;;;;;;;;;;;;;;4975352;28;113916;-69
2022/05/30 10:50:46;;;;;;;;;;;;;;;;;;4976634;28;131906;-69
2022/05/30 10:53:16;;;;;;;;;;;;;;;;;;4982323;28;107305;-70
2022/05/30 10:56:06;;;;;;;;;;;;;;;;;;4974203;28;107004;-70
2022/05/30 10:58:32;;;;;;;;;;;;;;;;;;5001978;28;124453;-69
2022/05/30 11:00:58;;;;;;;;;;;;;;;;;;4981808;28;114016;-70
2022/05/30 11:03:25;;;;;;;;;;;;;;;;;;5002549;28;108060;-70
2022/05/30 11:05:51;;;;;;;;;;;;;;;;;;4982809;28;135912;-69
2022/05/30 11:08:18;;;;;;;;;;;;;;;;;;4988260;28;108368;-70
2022/05/30 11:10:45;;;;;;;;;;;;;;;;;;4981072;28;108930;-70
2022/05/30 11:13:12;;;;;;;;;;;;;;;;;;4987111;28;106651;-71
2022/05/30 11:15:46;;;;;;;;;;;;;;;;;;4984394;28;107359;-69
2022/05/30 11:18:41;;;;;;;;;;;;;;;;;;4978065;28;107647;-69
2022/05/30 11:21:20;;;;;;;;;;;;;;;;;;4985538;28;106689;-70
2022/05/30 11:23:47;;;;;;;;;;;;;;;;;;4976289;28;108155;-70
2022/05/30 11:26:13;;;;;;;;;;;;;;;;;;4984416;28;132878;-69
2022/05/30 11:28:39;;;;;;;;;;;;;;;;;;4981647;28;123069;-70
2022/05/30 11:31:06;;;;;;;;;;;;;;;;;;4983402;28;136665;-70
2022/05/30 11:33:32;;;;;;;;;;;;;;;;;;4981925;28;121765;-70
2022/05/30 11:35:58;;;;;;;;;;;;;;;;;;4978080;28;140008;-69
2022/05/30 11:38:25;;;;;;;;;;;;;;;;;;4985854;28;132189;-69
2022/05/30 11:40:51;;;;;;;;;;;;;;;;;;4982400;28;123956;-69
2022/05/30 11:43:17;;;;;;;;;;;;;;;;;;4986356;28;135574;-69
2022/05/30 11:45:44;;;;;;;;;;;;;;;;;;4979116;28;137675;-68
2022/05/30 11:48:14;;;;;;;;;;;;;;;;;;4975086;28;106670;-69
2022/05/30 11:50:40;;;;;;;;;;;;;;;;;;4981941;28;126941;-69
2022/05/30 11:53:07;;;;;;;;;;;;;;;;;;4984999;28;135567;-69
2022/05/30 11:55:33;;;;;;;;;;;;;;;;;;4986488;28;136613;-69
2022/05/30 11:57:59;;;;;;;;;;;;;;;;;;4982864;28;137466;-75
2022/05/30 12:00:26;;;;;;;;;;;;;;;;;;4978102;28;106478;-69
2022/05/30 12:02:52;;;;;;;;;;;;;;;;;;4969367;28;135960;-70
2022/05/30 12:05:19;;;;;;;;;;;;;;;;;;4983034;28;137279;-69
2022/05/30 12:07:45;;;;;;;;;;;;;;;;;;4981995;28;123072;-68
2022/05/30 12:10:12;;;;;;;;;;;;;;;;;;4981876;28;133115;-68
2022/05/30 12:12:38;;;;;;;;;;;;;;;;;;4984950;28;131311;-68
2022/05/30 12:15:04;;;;;;;;;;;;;;;;;;4989666;28;121786;-68
2022/05/30 12:17:31;;;;;;;;;;;;;;;;;;4978924;28;118238;-68
2022/05/30 12:25:28;;;;;;;;;;;;;;;;;;4979375;28;137896;-69
2022/05/30 12:27:56;;;;;;;;;;;;;;;;;;4983395;28;124283;-68
2022/05/30 12:30:22;;;;;;;;;;;;;;;;;;4983519;28;137340;-68
2022/05/30 12:32:48;;;;;;;;;;;;;;;;;;4984100;28;135599;-72
2022/05/30 12:35:15;;;;;;;;;;;;;;;;;;4987413;28;106469;-68
2022/05/30 12:37:47;;;;;;;;;;;;;;;;;;4980302;28;133527;-69
2022/05/30 12:40:13;;;;;;;;;;;;;;;;;;4979069;28;107467;-69
2022/05/30 12:42:42;;;;;;;;;;;;;;;;;;4983239;28;106959;-68
2022/05/30 12:45:08;;;;;;;;;;;;;;;;;;4982284;28;135640;-67
2022/05/30 12:47:35;;;;;;;;;;;;;;;;;;4977263;28;106812;-68
2022/05/30 12:50:01;;;;;;;;;;;;;;;;;;4973494;28;135383;-68
2022/05/30 12:52:27;;;;;;;;;;;;;;;;;;4984090;28;138294;-68
2022/05/30 12:54:54;;;;;;;;;;;;;;;;;;4984024;28;123227;-68
2022/05/30 12:57:20;;;;;;;;;;;;;;;;;;4987687;28;136387;-68
2022/05/30 12:59:46;;;;;;;;;;;;;;;;;;4975183;28;122175;-68
2022/05/30 13:02:12;;;;;;;;;;;;;;;;;;4985575;28;135208;-67
2022/05/30 13:04:39;;;;;;;;;;;;;;;;;;4983530;28;136738;-68
2022/05/30 13:07:05;;;;;;;;;;;;;;;;;;4985330;28;107521;-68
2022/05/30 13:09:33;;;;;;;;;;;;;;;;;;4985314;28;135621;-68
2022/05/30 13:12:00;;;;;;;;;;;;;;;;;;4983688;28;134465;-67
2022/05/30 13:14:27;;;;;;;;;;;;;;;;;;4982303;28;121979;-67
2022/05/30 13:16:53;;;;;;;;;;;;;;;;;;4984475;28;136464;-68
2022/05/30 13:19:22;;;;;;;;;;;;;;;;;;4990036;28;137332;-67
2022/05/30 13:21:49;;;;;;;;;;;;;;;;;;4986917;28;135351;-67
2022/05/30 13:24:15;;;;;;;;;;;;;;;;;;4985738;28;127219;-68
2022/05/30 13:26:41;;;;;;;;;;;;;;;;;;4987637;28;122015;-67
2022/05/30 13:29:08;;;;;;;;;;;;;;;;;;4989133;28;135661;-68
2022/05/30 13:31:38;;;;;;;;;;;;;;;;;;4980822;28;107308;-68
2022/05/30 13:34:04;;;;;;;;;;;;;;;;;;4990450;28;106380;-69
2022/05/30 13:36:30;;;;;;;;;;;;;;;;;;4988595;28;131227;-68
2022/05/30 13:38:57;;;;;;;;;;;;;;;;;;4983485;28;137049;-68
2022/05/30 13:41:23;;;;;;;;;;;;;;;;;;4985706;28;125229;-68
2022/05/30 13:43:49;;;;;;;;;;;;;;;;;;4984136;28;137914;-68
2022/05/30 13:46:35;;;;;;;;;;;;;;;;;;4985339;28;106762;-68
2022/05/30 13:49:02;;;;;;;;;;;;;;;;;;4986644;28;133392;-68
2022/05/30 13:51:28;;;;;;;;;;;;;;;;;;4984238;28;107231;-68
2022/05/30 13:53:54;;;;;;;;;;;;;;;;;;4988354;28;123875;-68
2022/05/30 13:56:21;;;;;;;;;;;;;;;;;;4984239;28;134913;-67
2022/05/30 13:58:48;;;;;;;;;;;;;;;;;;4983384;28;137758;-68
2022/05/30 14:01:14;;;;;;;;;;;;;;;;;;4981203;28;107504;-67
2022/05/30 14:03:40;;;;;;;;;;;;;;;;;;4980221;28;136912;-68
2022/05/30 14:06:08;;;;;;;;;;;;;;;;;;4978272;28;110088;-68
2022/05/30 14:08:35;;;;;;;;;;;;;;;;;;4984927;27;136353;-68
2022/05/30 14:11:02;;;;;;;;;;;;;;;;;;4993843;28;137257;-70
2022/05/30 14:13:28;;;;;;;;;;;;;;;;;;4979788;28;122201;-68
2022/05/30 14:15:58;;;;;;;;;;;;;;;;;;4985849;28;129132;-68
2022/05/30 14:18:25;;;;;;;;;;;;;;;;;;4983277;27;106553;-70
2022/05/30 14:20:52;;;;;;;;;;;;;;;;;;4987209;28;106825;-70
2022/05/30 14:23:18;;;;;;;;;;;;;;;;;;4984530;28;136936;-70
2022/05/30 14:25:44;;;;;;;;;;;;;;;;;;4986638;28;108956;-70
2022/05/30 14:28:14;;;;;;;;;;;;;;;;;;4980572;28;106351;-70
2022/05/30 14:30:40;;;;;;;;;;;;;;;;;;4977068;28;130337;-70
2022/05/30 14:33:07;;;;;;;;;;;;;;;;;;4984321;28;106840;-70
2022/05/30 14:35:33;;;;;;;;;;;;;;;;;;4973241;28;135334;-70
2022/05/30 14:37:59;;;;;;;;;;;;;;;;;;4986822;28;131801;-70
2022/05/30 14:40:26;;;;;;;;;;;;;;;;;;4987332;27;122693;-70
2022/05/30 14:42:53;;;;;;;;;;;;;;;;;;4985872;28;128088;-70
2022/05/30 14:45:19;;;;;;;;;;;;;;;;;;4998404;27;135661;-69
2022/05/30 14:47:46;;;;;;;;;;;;;;;;;;4985129;28;122622;-70
2022/05/30 14:50:13;;;;;;;;;;;;;;;;;;4984198;28;135640;-69
2022/05/30 14:52:41;;;;;;;;;;;;;;;;;;4982703;28;106966;-71
2022/05/30 14:55:07;;;;;;;;;;;;;;;;;;4983642;27;135574;-70
2022/05/30 14:57:33;;;;;;;;;;;;;;;;;;4985593;28;136395;-68
2022/05/30 14:59:59;;;;;;;;;;;;;;;;;;4984820;27;120307;-70
2022/05/30 15:05:11;;;;;;;;;;;;;;;;;;4984206;27;108687;-70
2022/05/30 15:07:37;;;;;;;;;;;;;;;;;;4987898;28;120835;-71
2022/05/30 15:10:03;;;;;;;;;;;;;;;;;;4976826;27;135688;-69
2022/05/30 15:12:30;;;;;;;;;;;;;;;;;;4988934;28;122524;-70
2022/05/30 15:14:56;;;;;;;;;;;;;;;;;;4993542;27;134667;-75
2022/05/30 15:17:22;;;;;;;;;;;;;;;;;;4991572;28;108867;-75
2022/05/30 15:19:53;;;;;;;;;;;;;;;;;;4978902;28;124506;-69
2022/05/30 15:22:19;;;;;;;;;;;;;;;;;;4976275;28;121881;-71
2022/05/30 15:24:52;;;;;;;;;;;;;;;;;;4986660;27;135689;-71
2022/05/30 15:27:19;;;;;;;;;;;;;;;;;;4989916;28;122811;-71
2022/05/30 15:29:45;;;;;;;;;;;;;;;;;;4980807;28;125922;-72
2022/05/30 15:32:11;;;;;;;;;;;;;;;;;;4975491;28;121918;-71
2022/05/30 15:34:38;;;;;;;;;;;;;;;;;;4983996;28;136438;-71
2022/05/30 15:37:04;;;;;;;;;;;;;;;;;;4982260;28;138396;-71
2022/05/30 15:39:30;;;;;;;;;;;;;;;;;;4980341;28;115799;-72
2022/05/30 15:41:57;;;;;;;;;;;;;;;;;;4984292;28;136588;-68
2022/05/30 15:44:23;;;;;;;;;;;;;;;;;;4981735;27;107466;-76
2022/05/30 15:46:50;;;;;;;;;;;;;;;;;;4990667;28;107673;-74
2022/05/30 15:49:16;;;;;;;;;;;;;;;;;;4979388;27;106862;-73
2022/05/30 15:51:43;;;;;;;;;;;;;;;;;;4984476;28;107336;-71
2022/05/30 15:59:39;;;;;;;;;;;;;;;;;;4978124;28;119555;-74
2022/05/30 16:02:09;;;;;;;;;;;;;;;;;;4982057;28;137392;-70
2022/05/30 16:04:35;;;;;;;;;;;;;;;;;;4976725;27;136476;-74
2022/05/30 16:07:02;;;;;;;;;;;;;;;;;;4976467;28;123243;-77
2022/05/30 16:09:28;;;;;;;;;;;;;;;;;;4976489;27;135392;-77
2022/05/30 16:11:55;;;;;;;;;;;;;;;;;;4973449;28;131935;-70
2022/05/30 16:14:21;;;;;;;;;;;;;;;;;;4984909;28;121892;-69
2022/05/30 16:16:47;;;;;;;;;;;;;;;;;;4983717;28;135453;-71
2022/05/30 16:19:14;;;;;;;;;;;;;;;;;;4993627;28;107562;-70
2022/05/30 16:21:40;;;;;;;;;;;;;;;;;;4997021;28;135342;-71
2022/05/30 16:24:07;;;;;;;;;;;;;;;;;;4979271;27;137111;-71
2022/05/30 16:26:33;;;;;;;;;;;;;;;;;;4980480;28;122325;-70
2022/05/30 16:28:59;;;;;;;;;;;;;;;;;;4974937;27;133820;-70
2022/05/30 16:31:26;;;;;;;;;;;;;;;;;;4985257;28;136529;-71
2022/05/30 16:33:52;;;;;;;;;;;;;;;;;;4982940;28;117068;-68
2022/05/30 16:36:18;;;;;;;;;;;;;;;;;;4987690;28;135140;-69
2022/05/30 16:38:45;;;;;;;;;;;;;;;;;;4981245;27;121734;-71
2022/05/30 16:41:11;;;;;;;;;;;;;;;;;;4983700;28;114612;-70
2022/05/30 16:43:38;;;;;;;;;;;;;;;;;;4980797;28;122039;-70
2022/05/30 16:46:05;;;;;;;;;;;;;;;;;;4976597;28;122819;-69
2022/05/30 16:48:31;;;;;;;;;;;;;;;;;;4980261;27;136849;-70
2022/05/30 16:50:57;;;;;;;;;;;;;;;;;;4989906;28;137630;-70
2022/05/30 16:53:24;;;;;;;;;;;;;;;;;;5004339;27;106958;-70
2022/05/30 16:55:50;;;;;;;;;;;;;;;;;;4991319;28;135765;-71
2022/05/30 16:58:16;;;;;;;;;;;;;;;;;;4987555;28;107166;-72
2022/05/30 17:00:43;;;;;;;;;;;;;;;;;;4987606;28;135217;-71
2022/05/30 17:03:09;;;;;;;;;;;;;;;;;;4995009;28;135701;-70
2022/05/30 17:05:35;;;;;;;;;;;;;;;;;;4991315;27;106454;-70
2022/05/30 17:08:02;;;;;;;;;;;;;;;;;;4998538;28;114290;-71
2022/05/30 17:10:29;;;;;;;;;;;;;;;;;;4986863;28;135656;-70
2022/05/30 17:12:56;;;;;;;;;;;;;;;;;;4983523;28;123337;-70
2022/05/30 17:15:23;;;;;;;;;;;;;;;;;;4978954;27;137088;-70